sensor_id;sensor_type;location;lat;lon;timestamp;P1;durP1;ratioP1;P2;durP2;ratioP2
35592;SDS011;64447;52.140;5.602;2023-05-13T00:00:06;6.13;;;5.22;;
35592;SDS011;64447;52.140;5.602;2023-05-13T00:02:32;5.97;;;5.47;;
35592;SDS011;64447;52.140;5.602;2023-05-13T00:04:57;7.00;;;5.38;;
35592;SDS011;64447;52.140;5.602;2023-05-13T00:07:23;6.35;;;5.75;;
35592;SDS011;64447;52.140;5.602;2023-05-13T00:09:49;7.95;;;5.40;;
35592;SDS011;64447;52.140;5.602;2023-05-13T00:12:15;6.95;;;5.15;;
35592;SDS011;64447;52.140;5.602;2023-05-13T00:14:41;5.82;;;5.13;;
35592;SDS011;64447;52.140;5.602;2023-05-13T00:17:06;6.75;;;5.22;;
35592;SDS011;64447;52.140;5.602;2023-05-13T00:19:32;5.97;;;5.13;;
35592;SDS011;64447;52.140;5.602;2023-05-13T00:21:57;6.28;;;5.45;;
35592;SDS011;64447;52.140;5.602;2023-05-13T00:27:45;6.40;;;5.80;;
35592;SDS011;64447;52.140;5.602;2023-05-13T00:30:10;9.65;;;5.53;;
35592;SDS011;64447;52.140;5.602;2023-05-13T00:32:36;8.15;;;6.15;;
35592;SDS011;64447;52.140;5.602;2023-05-13T00:35:02;6.82;;;5.97;;
35592;SDS011;64447;52.140;5.602;2023-05-13T00:37:28;9.95;;;5.68;;
35592;SDS011;64447;52.140;5.602;2023-05-13T00:39:53;6.60;;;5.85;;
35592;SDS011;64447;52.140;5.602;2023-05-13T00:42:19;8.25;;;5.97;;
35592;SDS011;64447;52.140;5.602;2023-05-13T00:44:44;8.00;;;6.10;;
35592;SDS011;64447;52.140;5.602;2023-05-13T00:47:10;7.45;;;5.50;;
35592;SDS011;64447;52.140;5.602;2023-05-13T00:49:36;7.20;;;5.85;;
35592;SDS011;64447;52.140;5.602;2023-05-13T00:52:02;6.55;;;5.72;;
35592;SDS011;64447;52.140;5.602;2023-05-13T00:57:50;10.85;;;6.50;;
35592;SDS011;64447;52.140;5.602;2023-05-13T01:00:15;7.75;;;5.90;;
35592;SDS011;64447;52.140;5.602;2023-05-13T01:02:44;6.85;;;5.88;;
35592;SDS011;64447;52.140;5.602;2023-05-13T01:05:20;10.20;;;6.40;;
35592;SDS011;64447;52.140;5.602;2023-05-13T01:10:56;8.35;;;5.75;;
35592;SDS011;64447;52.140;5.602;2023-05-13T01:13:30;6.32;;;5.53;;
35592;SDS011;64447;52.140;5.602;2023-05-13T01:18:54;9.80;;;6.05;;
35592;SDS011;64447;52.140;5.602;2023-05-13T01:21:25;7.28;;;6.00;;
35592;SDS011;64447;52.140;5.602;2023-05-13T01:23:52;8.45;;;6.32;;
35592;SDS011;64447;52.140;5.602;2023-05-13T01:26:18;7.30;;;6.43;;
35592;SDS011;64447;52.140;5.602;2023-05-13T01:28:44;7.15;;;6.10;;
35592;SDS011;64447;52.140;5.602;2023-05-13T01:31:11;7.95;;;6.45;;
35592;SDS011;64447;52.140;5.602;2023-05-13T01:33:38;8.73;;;6.35;;
35592;SDS011;64447;52.140;5.602;2023-05-13T01:36:05;9.27;;;6.70;;
35592;SDS011;64447;52.140;5.602;2023-05-13T01:38:32;7.32;;;6.63;;
35592;SDS011;64447;52.140;5.602;2023-05-13T01:40:59;7.53;;;6.65;;
35592;SDS011;64447;52.140;5.602;2023-05-13T01:43:25;9.00;;;7.10;;
35592;SDS011;64447;52.140;5.602;2023-05-13T01:45:51;9.15;;;6.35;;
35592;SDS011;64447;52.140;5.602;2023-05-13T01:48:17;10.13;;;7.22;;
35592;SDS011;64447;52.140;5.602;2023-05-13T01:50:43;9.57;;;6.40;;
35592;SDS011;64447;52.140;5.602;2023-05-13T01:53:10;8.63;;;6.70;;
35592;SDS011;64447;52.140;5.602;2023-05-13T01:55:36;10.55;;;7.25;;
35592;SDS011;64447;52.140;5.602;2023-05-13T01:58:01;7.72;;;6.68;;
35592;SDS011;64447;52.140;5.602;2023-05-13T02:00:27;9.82;;;7.57;;
35592;SDS011;64447;52.140;5.602;2023-05-13T02:02:52;9.45;;;7.38;;
35592;SDS011;64447;52.140;5.602;2023-05-13T02:05:18;10.55;;;7.63;;
35592;SDS011;64447;52.140;5.602;2023-05-13T02:07:43;9.30;;;7.32;;
35592;SDS011;64447;52.140;5.602;2023-05-13T02:10:09;15.60;;;8.52;;
35592;SDS011;64447;52.140;5.602;2023-05-13T02:12:35;10.50;;;7.88;;
35592;SDS011;64447;52.140;5.602;2023-05-13T02:15:01;8.77;;;7.85;;
35592;SDS011;64447;52.140;5.602;2023-05-13T02:17:27;8.85;;;7.63;;
35592;SDS011;64447;52.140;5.602;2023-05-13T02:19:52;9.00;;;7.32;;
35592;SDS011;64447;52.140;5.602;2023-05-13T02:22:18;11.05;;;8.35;;
35592;SDS011;64447;52.140;5.602;2023-05-13T02:28:05;11.90;;;8.88;;
35592;SDS011;64447;52.140;5.602;2023-05-13T02:30:30;10.38;;;8.38;;
35592;SDS011;64447;52.140;5.602;2023-05-13T02:32:56;10.95;;;9.27;;
35592;SDS011;64447;52.140;5.602;2023-05-13T02:35:22;14.05;;;9.23;;
35592;SDS011;64447;52.140;5.602;2023-05-13T02:37:49;13.50;;;9.15;;
35592;SDS011;64447;52.140;5.602;2023-05-13T02:40:15;12.95;;;9.93;;
35592;SDS011;64447;52.140;5.602;2023-05-13T02:42:40;13.95;;;9.55;;
35592;SDS011;64447;52.140;5.602;2023-05-13T02:45:07;12.75;;;9.90;;
35592;SDS011;64447;52.140;5.602;2023-05-13T02:47:34;12.43;;;9.95;;
35592;SDS011;64447;52.140;5.602;2023-05-13T02:49:59;12.70;;;10.35;;
35592;SDS011;64447;52.140;5.602;2023-05-13T02:52:25;13.55;;;10.57;;
35592;SDS011;64447;52.140;5.602;2023-05-13T02:58:12;14.60;;;10.20;;
35592;SDS011;64447;52.140;5.602;2023-05-13T03:00:38;13.02;;;10.65;;
35592;SDS011;64447;52.140;5.602;2023-05-13T03:03:03;14.55;;;10.57;;
35592;SDS011;64447;52.140;5.602;2023-05-13T03:05:29;13.55;;;11.07;;
35592;SDS011;64447;52.140;5.602;2023-05-13T03:07:54;11.07;;;9.98;;
35592;SDS011;64447;52.140;5.602;2023-05-13T03:10:21;13.45;;;10.80;;
35592;SDS011;64447;52.140;5.602;2023-05-13T03:12:47;12.57;;;10.20;;
35592;SDS011;64447;52.140;5.602;2023-05-13T03:15:14;14.45;;;10.70;;
35592;SDS011;64447;52.140;5.602;2023-05-13T03:17:40;15.85;;;10.60;;
35592;SDS011;64447;52.140;5.602;2023-05-13T03:20:06;12.80;;;11.15;;
35592;SDS011;64447;52.140;5.602;2023-05-13T03:22:32;14.88;;;11.20;;
35592;SDS011;64447;52.140;5.602;2023-05-13T03:28:19;15.38;;;11.65;;
35592;SDS011;64447;52.140;5.602;2023-05-13T03:30:45;15.65;;;11.45;;
35592;SDS011;64447;52.140;5.602;2023-05-13T03:33:10;13.65;;;11.32;;
35592;SDS011;64447;52.140;5.602;2023-05-13T03:35:36;17.23;;;11.80;;
35592;SDS011;64447;52.140;5.602;2023-05-13T03:38:02;16.15;;;11.18;;
35592;SDS011;64447;52.140;5.602;2023-05-13T03:40:28;15.77;;;11.73;;
35592;SDS011;64447;52.140;5.602;2023-05-13T03:42:54;13.63;;;11.57;;
35592;SDS011;64447;52.140;5.602;2023-05-13T03:45:20;15.93;;;12.45;;
35592;SDS011;64447;52.140;5.602;2023-05-13T03:47:45;16.50;;;13.30;;
35592;SDS011;64447;52.140;5.602;2023-05-13T03:50:11;13.07;;;11.27;;
35592;SDS011;64447;52.140;5.602;2023-05-13T03:52:36;14.68;;;12.38;;
35592;SDS011;64447;52.140;5.602;2023-05-13T03:58:23;17.10;;;11.80;;
35592;SDS011;64447;52.140;5.602;2023-05-13T04:00:49;14.98;;;12.18;;
35592;SDS011;64447;52.140;5.602;2023-05-13T04:03:15;13.80;;;11.90;;
35592;SDS011;64447;52.140;5.602;2023-05-13T04:05:41;16.15;;;12.73;;
35592;SDS011;64447;52.140;5.602;2023-05-13T04:08:07;16.30;;;12.48;;
35592;SDS011;64447;52.140;5.602;2023-05-13T04:10:32;18.70;;;12.88;;
35592;SDS011;64447;52.140;5.602;2023-05-13T04:12:58;17.13;;;12.93;;
35592;SDS011;64447;52.140;5.602;2023-05-13T04:15:24;17.02;;;12.02;;
35592;SDS011;64447;52.140;5.602;2023-05-13T04:17:50;17.27;;;12.52;;
35592;SDS011;64447;52.140;5.602;2023-05-13T04:20:16;15.90;;;12.55;;
35592;SDS011;64447;52.140;5.602;2023-05-13T04:22:42;17.88;;;12.90;;
35592;SDS011;64447;52.140;5.602;2023-05-13T04:28:29;17.90;;;12.98;;
35592;SDS011;64447;52.140;5.602;2023-05-13T04:30:55;17.48;;;13.43;;
35592;SDS011;64447;52.140;5.602;2023-05-13T04:33:21;15.43;;;12.52;;
35592;SDS011;64447;52.140;5.602;2023-05-13T04:35:47;17.13;;;13.05;;
35592;SDS011;64447;52.140;5.602;2023-05-13T04:38:12;16.38;;;14.02;;
35592;SDS011;64447;52.140;5.602;2023-05-13T04:40:38;18.90;;;13.35;;
35592;SDS011;64447;52.140;5.602;2023-05-13T04:43:03;18.13;;;13.90;;
35592;SDS011;64447;52.140;5.602;2023-05-13T04:45:29;16.85;;;13.55;;
35592;SDS011;64447;52.140;5.602;2023-05-13T04:47:56;15.77;;;13.95;;
35592;SDS011;64447;52.140;5.602;2023-05-13T04:50:21;15.27;;;13.68;;
35592;SDS011;64447;52.140;5.602;2023-05-13T04:52:47;22.67;;;14.48;;
35592;SDS011;64447;52.140;5.602;2023-05-13T04:58:35;20.15;;;13.20;;
35592;SDS011;64447;52.140;5.602;2023-05-13T05:01:00;18.10;;;14.20;;
35592;SDS011;64447;52.140;5.602;2023-05-13T05:03:26;18.02;;;14.10;;
35592;SDS011;64447;52.140;5.602;2023-05-13T05:05:52;17.98;;;13.52;;
35592;SDS011;64447;52.140;5.602;2023-05-13T05:08:17;19.23;;;14.80;;
35592;SDS011;64447;52.140;5.602;2023-05-13T05:10:43;16.30;;;14.02;;
35592;SDS011;64447;52.140;5.602;2023-05-13T05:13:08;19.52;;;14.85;;
35592;SDS011;64447;52.140;5.602;2023-05-13T05:15:35;20.13;;;15.15;;
35592;SDS011;64447;52.140;5.602;2023-05-13T05:18:00;20.33;;;14.82;;
35592;SDS011;64447;52.140;5.602;2023-05-13T05:20:26;19.80;;;14.80;;
35592;SDS011;64447;52.140;5.602;2023-05-13T05:22:51;17.95;;;14.45;;
35592;SDS011;64447;52.140;5.602;2023-05-13T05:28:40;18.88;;;14.63;;
35592;SDS011;64447;52.140;5.602;2023-05-13T05:31:06;19.75;;;14.68;;
35592;SDS011;64447;52.140;5.602;2023-05-13T05:33:32;18.80;;;13.65;;
35592;SDS011;64447;52.140;5.602;2023-05-13T05:35:57;19.08;;;14.30;;
35592;SDS011;64447;52.140;5.602;2023-05-13T05:38:23;16.67;;;13.93;;
35592;SDS011;64447;52.140;5.602;2023-05-13T05:40:49;16.08;;;13.48;;
35592;SDS011;64447;52.140;5.602;2023-05-13T05:43:14;18.58;;;13.18;;
35592;SDS011;64447;52.140;5.602;2023-05-13T05:45:40;20.15;;;13.88;;
35592;SDS011;64447;52.140;5.602;2023-05-13T05:48:06;17.42;;;13.13;;
35592;SDS011;64447;52.140;5.602;2023-05-13T05:50:32;18.70;;;13.60;;
35592;SDS011;64447;52.140;5.602;2023-05-13T05:52:58;16.35;;;14.00;;
35592;SDS011;64447;52.140;5.602;2023-05-13T05:58:46;17.83;;;13.48;;
35592;SDS011;64447;52.140;5.602;2023-05-13T06:01:12;15.10;;;13.32;;
35592;SDS011;64447;52.140;5.602;2023-05-13T06:03:37;17.13;;;13.27;;
35592;SDS011;64447;52.140;5.602;2023-05-13T06:06:03;16.42;;;13.02;;
35592;SDS011;64447;52.140;5.602;2023-05-13T06:08:29;19.33;;;13.18;;
35592;SDS011;64447;52.140;5.602;2023-05-13T06:10:58;17.80;;;13.05;;
35592;SDS011;64447;52.140;5.602;2023-05-13T06:13:24;13.98;;;12.50;;
35592;SDS011;64447;52.140;5.602;2023-05-13T06:15:50;16.95;;;12.60;;
35592;SDS011;64447;52.140;5.602;2023-05-13T06:18:15;18.35;;;12.48;;
35592;SDS011;64447;52.140;5.602;2023-05-13T06:20:41;15.10;;;12.23;;
35592;SDS011;64447;52.140;5.602;2023-05-13T06:23:09;18.00;;;12.60;;
35592;SDS011;64447;52.140;5.602;2023-05-13T06:28:57;16.13;;;12.25;;
35592;SDS011;64447;52.140;5.602;2023-05-13T06:31:22;18.05;;;12.35;;
35592;SDS011;64447;52.140;5.602;2023-05-13T06:33:48;16.58;;;12.43;;
35592;SDS011;64447;52.140;5.602;2023-05-13T06:36:13;18.90;;;12.60;;
35592;SDS011;64447;52.140;5.602;2023-05-13T06:38:39;14.18;;;11.93;;
35592;SDS011;64447;52.140;5.602;2023-05-13T06:41:04;14.88;;;12.07;;
35592;SDS011;64447;52.140;5.602;2023-05-13T06:43:30;15.65;;;12.35;;
35592;SDS011;64447;52.140;5.602;2023-05-13T06:45:56;14.65;;;12.07;;
35592;SDS011;64447;52.140;5.602;2023-05-13T06:48:21;14.38;;;12.55;;
35592;SDS011;64447;52.140;5.602;2023-05-13T06:50:47;14.18;;;11.60;;
35592;SDS011;64447;52.140;5.602;2023-05-13T06:53:14;16.20;;;11.70;;
35592;SDS011;64447;52.140;5.602;2023-05-13T06:59:02;19.95;;;13.27;;
35592;SDS011;64447;52.140;5.602;2023-05-13T07:01:27;13.95;;;11.98;;
35592;SDS011;64447;52.140;5.602;2023-05-13T07:03:53;13.95;;;11.25;;
35592;SDS011;64447;52.140;5.602;2023-05-13T07:06:18;15.07;;;12.10;;
35592;SDS011;64447;52.140;5.602;2023-05-13T07:08:44;15.85;;;12.35;;
35592;SDS011;64447;52.140;5.602;2023-05-13T07:11:10;12.90;;;11.52;;
35592;SDS011;64447;52.140;5.602;2023-05-13T07:13:35;13.88;;;12.35;;
35592;SDS011;64447;52.140;5.602;2023-05-13T07:16:01;13.43;;;11.88;;
35592;SDS011;64447;52.140;5.602;2023-05-13T07:18:27;15.35;;;12.73;;
35592;SDS011;64447;52.140;5.602;2023-05-13T07:20:53;16.58;;;12.32;;
35592;SDS011;64447;52.140;5.602;2023-05-13T07:23:22;15.77;;;11.88;;
35592;SDS011;64447;52.140;5.602;2023-05-13T07:29:10;18.27;;;11.52;;
35592;SDS011;64447;52.140;5.602;2023-05-13T07:31:36;17.85;;;12.63;;
35592;SDS011;64447;52.140;5.602;2023-05-13T07:34:02;15.40;;;12.45;;
35592;SDS011;64447;52.140;5.602;2023-05-13T07:36:28;15.50;;;11.77;;
35592;SDS011;64447;52.140;5.602;2023-05-13T07:38:53;14.77;;;12.63;;
35592;SDS011;64447;52.140;5.602;2023-05-13T07:41:19;15.45;;;11.38;;
35592;SDS011;64447;52.140;5.602;2023-05-13T07:43:45;17.45;;;11.18;;
35592;SDS011;64447;52.140;5.602;2023-05-13T07:46:11;12.95;;;10.63;;
35592;SDS011;64447;52.140;5.602;2023-05-13T07:48:37;15.30;;;10.68;;
35592;SDS011;64447;52.140;5.602;2023-05-13T07:51:03;15.80;;;10.48;;
35592;SDS011;64447;52.140;5.602;2023-05-13T07:53:29;11.45;;;9.18;;
35592;SDS011;64447;52.140;5.602;2023-05-13T07:59:17;9.95;;;8.57;;
35592;SDS011;64447;52.140;5.602;2023-05-13T08:01:42;12.95;;;9.70;;
35592;SDS011;64447;52.140;5.602;2023-05-13T08:04:08;11.60;;;8.93;;
35592;SDS011;64447;52.140;5.602;2023-05-13T08:06:34;12.65;;;9.27;;
35592;SDS011;64447;52.140;5.602;2023-05-13T08:08:59;10.65;;;9.40;;
35592;SDS011;64447;52.140;5.602;2023-05-13T08:11:26;11.75;;;8.60;;
35592;SDS011;64447;52.140;5.602;2023-05-13T08:13:52;9.93;;;8.25;;
35592;SDS011;64447;52.140;5.602;2023-05-13T08:16:17;11.52;;;8.60;;
35592;SDS011;64447;52.140;5.602;2023-05-13T08:18:43;10.27;;;8.20;;
35592;SDS011;64447;52.140;5.602;2023-05-13T08:21:08;9.05;;;8.13;;
35592;SDS011;64447;52.140;5.602;2023-05-13T08:23:35;11.45;;;8.25;;
35592;SDS011;64447;52.140;5.602;2023-05-13T08:29:23;11.05;;;8.23;;
35592;SDS011;64447;52.140;5.602;2023-05-13T08:31:48;10.10;;;7.85;;
35592;SDS011;64447;52.140;5.602;2023-05-13T08:34:14;13.45;;;8.35;;
35592;SDS011;64447;52.140;5.602;2023-05-13T08:36:41;9.43;;;7.75;;
35592;SDS011;64447;52.140;5.602;2023-05-13T08:39:06;9.45;;;7.30;;
35592;SDS011;64447;52.140;5.602;2023-05-13T08:41:33;8.80;;;7.32;;
35592;SDS011;64447;52.140;5.602;2023-05-13T08:43:59;9.27;;;7.78;;
35592;SDS011;64447;52.140;5.602;2023-05-13T08:46:27;10.75;;;8.43;;
35592;SDS011;64447;52.140;5.602;2023-05-13T08:48:55;8.82;;;7.93;;
35592;SDS011;64447;52.140;5.602;2023-05-13T08:51:21;8.98;;;7.78;;
35592;SDS011;64447;52.140;5.602;2023-05-13T08:53:47;9.82;;;8.05;;
35592;SDS011;64447;52.140;5.602;2023-05-13T08:59:37;10.10;;;7.40;;
35592;SDS011;64447;52.140;5.602;2023-05-13T09:02:03;11.65;;;8.65;;
35592;SDS011;64447;52.140;5.602;2023-05-13T09:04:29;11.50;;;9.07;;
35592;SDS011;64447;52.140;5.602;2023-05-13T09:06:55;9.05;;;7.28;;
35592;SDS011;64447;52.140;5.602;2023-05-13T09:09:21;8.55;;;7.70;;
35592;SDS011;64447;52.140;5.602;2023-05-13T09:11:48;7.78;;;6.88;;
35592;SDS011;64447;52.140;5.602;2023-05-13T09:14:13;8.18;;;7.25;;
35592;SDS011;64447;52.140;5.602;2023-05-13T09:16:43;9.55;;;6.78;;
35592;SDS011;64447;52.140;5.602;2023-05-13T09:19:09;7.95;;;6.60;;
35592;SDS011;64447;52.140;5.602;2023-05-13T09:21:35;7.38;;;6.57;;
35592;SDS011;64447;52.140;5.602;2023-05-13T09:24:08;8.38;;;6.68;;
35592;SDS011;64447;52.140;5.602;2023-05-13T09:29:59;8.27;;;6.78;;
35592;SDS011;64447;52.140;5.602;2023-05-13T09:32:25;8.00;;;6.18;;
35592;SDS011;64447;52.140;5.602;2023-05-13T09:34:50;8.52;;;6.30;;
35592;SDS011;64447;52.140;5.602;2023-05-13T09:37:16;10.18;;;6.47;;
35592;SDS011;64447;52.140;5.602;2023-05-13T09:39:45;6.20;;;5.57;;
35592;SDS011;64447;52.140;5.602;2023-05-13T09:42:17;9.13;;;5.60;;
35592;SDS011;64447;52.140;5.602;2023-05-13T09:44:43;7.25;;;5.95;;
35592;SDS011;64447;52.140;5.602;2023-05-13T09:47:10;9.50;;;6.55;;
35592;SDS011;64447;52.140;5.602;2023-05-13T09:49:39;7.03;;;6.32;;
35592;SDS011;64447;52.140;5.602;2023-05-13T09:52:05;9.65;;;6.80;;
35592;SDS011;64447;52.140;5.602;2023-05-13T09:54:35;7.72;;;6.53;;
35592;SDS011;64447;52.140;5.602;2023-05-13T09:57:01;10.70;;;7.38;;
35592;SDS011;64447;52.140;5.602;2023-05-13T09:59:30;9.65;;;6.80;;
35592;SDS011;64447;52.140;5.602;2023-05-13T10:02:03;8.57;;;5.80;;
35592;SDS011;64447;52.140;5.602;2023-05-13T10:04:30;9.38;;;5.93;;
35592;SDS011;64447;52.140;5.602;2023-05-13T10:07:02;7.38;;;5.95;;
35592;SDS011;64447;52.140;5.602;2023-05-13T10:09:29;7.93;;;6.50;;
35592;SDS011;64447;52.140;5.602;2023-05-13T10:15:24;7.50;;;5.90;;
35592;SDS011;64447;52.140;5.602;2023-05-13T10:17:50;8.00;;;6.20;;
35592;SDS011;64447;52.140;5.602;2023-05-13T10:20:16;9.75;;;6.20;;
35592;SDS011;64447;52.140;5.602;2023-05-13T10:22:42;9.60;;;6.30;;
35592;SDS011;64447;52.140;5.602;2023-05-13T10:25:08;8.75;;;6.53;;
35592;SDS011;64447;52.140;5.602;2023-05-13T10:27:35;8.77;;;5.72;;
35592;SDS011;64447;52.140;5.602;2023-05-13T10:30:02;10.43;;;6.90;;
35592;SDS011;64447;52.140;5.602;2023-05-13T10:32:33;8.23;;;6.25;;
35592;SDS011;64447;52.140;5.602;2023-05-13T10:45:46;7.63;;;5.93;;
35592;SDS011;64447;52.140;5.602;2023-05-13T10:48:19;7.28;;;5.80;;
35592;SDS011;64447;52.140;5.602;2023-05-13T10:50:53;7.13;;;5.55;;
35592;SDS011;64447;52.140;5.602;2023-05-13T10:53:22;8.02;;;5.80;;
35592;SDS011;64447;52.140;5.602;2023-05-13T10:55:52;6.97;;;5.22;;
35592;SDS011;64447;52.140;5.602;2023-05-13T10:58:20;10.02;;;4.60;;
35592;SDS011;64447;52.140;5.602;2023-05-13T11:00:48;6.30;;;4.90;;
35592;SDS011;64447;52.140;5.602;2023-05-13T11:05:44;7.80;;;5.13;;
35592;SDS011;64447;52.140;5.602;2023-05-13T11:08:11;7.72;;;4.95;;
35592;SDS011;64447;52.140;5.602;2023-05-13T11:11:01;8.82;;;5.13;;
35592;SDS011;64447;52.140;5.602;2023-05-13T11:13:34;7.10;;;5.15;;
35592;SDS011;64447;52.140;5.602;2023-05-13T11:16:01;9.23;;;5.10;;
35592;SDS011;64447;52.140;5.602;2023-05-13T11:18:31;16.48;;;6.18;;
35592;SDS011;64447;52.140;5.602;2023-05-13T11:21:02;5.75;;;5.15;;
35592;SDS011;64447;52.140;5.602;2023-05-13T11:23:28;5.75;;;4.72;;
35592;SDS011;64447;52.140;5.602;2023-05-13T11:26:12;6.45;;;5.30;;
35592;SDS011;64447;52.140;5.602;2023-05-13T11:31:42;8.57;;;5.13;;
35592;SDS011;64447;52.140;5.602;2023-05-13T11:36:44;6.35;;;4.38;;
35592;SDS011;64447;52.140;5.602;2023-05-13T11:39:17;9.27;;;5.15;;
35592;SDS011;64447;52.140;5.602;2023-05-13T11:44:11;8.55;;;5.22;;
35592;SDS011;64447;52.140;5.602;2023-05-13T11:46:48;7.65;;;4.88;;
35592;SDS011;64447;52.140;5.602;2023-05-13T11:51:59;10.75;;;4.82;;
35592;SDS011;64447;52.140;5.602;2023-05-13T11:54:26;8.32;;;4.45;;
35592;SDS011;64447;52.140;5.602;2023-05-13T11:56:52;6.50;;;4.28;;
35592;SDS011;64447;52.140;5.602;2023-05-13T11:59:17;6.55;;;4.78;;
35592;SDS011;64447;52.140;5.602;2023-05-13T12:01:43;10.68;;;4.85;;
35592;SDS011;64447;52.140;5.602;2023-05-13T12:04:08;8.95;;;4.97;;
35592;SDS011;64447;52.140;5.602;2023-05-13T12:06:34;5.63;;;4.60;;
35592;SDS011;64447;52.140;5.602;2023-05-13T12:09:06;5.57;;;4.20;;
35592;SDS011;64447;52.140;5.602;2023-05-13T12:11:33;5.50;;;4.40;;
35592;SDS011;64447;52.140;5.602;2023-05-13T12:13:59;5.93;;;4.18;;
35592;SDS011;64447;52.140;5.602;2023-05-13T12:16:25;5.55;;;4.35;;
35592;SDS011;64447;52.140;5.602;2023-05-13T12:19:04;7.57;;;4.40;;
35592;SDS011;64447;52.140;5.602;2023-05-13T12:21:31;6.05;;;4.50;;
35592;SDS011;64447;52.140;5.602;2023-05-13T12:23:57;4.85;;;4.32;;
35592;SDS011;64447;52.140;5.602;2023-05-13T12:26:23;6.05;;;4.35;;
35592;SDS011;64447;52.140;5.602;2023-05-13T12:28:55;5.47;;;4.22;;
35592;SDS011;64447;52.140;5.602;2023-05-13T12:31:24;5.18;;;4.68;;
35592;SDS011;64447;52.140;5.602;2023-05-13T12:33:50;9.88;;;4.93;;
35592;SDS011;64447;52.140;5.602;2023-05-13T12:36:19;7.15;;;4.20;;
35592;SDS011;64447;52.140;5.602;2023-05-13T12:38:56;5.15;;;3.78;;
35592;SDS011;64447;52.140;5.602;2023-05-13T12:43:57;5.35;;;4.38;;
35592;SDS011;64447;52.140;5.602;2023-05-13T12:46:32;8.60;;;5.18;;
35592;SDS011;64447;52.140;5.602;2023-05-13T12:49:00;6.97;;;4.65;;
35592;SDS011;64447;52.140;5.602;2023-05-13T12:51:27;5.18;;;4.72;;
35592;SDS011;64447;52.140;5.602;2023-05-13T12:53:58;6.75;;;4.65;;
35592;SDS011;64447;52.140;5.602;2023-05-13T12:56:24;5.38;;;4.43;;
35592;SDS011;64447;52.140;5.602;2023-05-13T12:58:50;5.05;;;3.65;;
35592;SDS011;64447;52.140;5.602;2023-05-13T13:01:18;7.43;;;4.53;;
35592;SDS011;64447;52.140;5.602;2023-05-13T13:03:44;4.88;;;4.38;;
35592;SDS011;64447;52.140;5.602;2023-05-13T13:06:10;7.10;;;4.47;;
35592;SDS011;64447;52.140;5.602;2023-05-13T13:08:36;9.55;;;4.80;;
35592;SDS011;64447;52.140;5.602;2023-05-13T13:11:02;5.28;;;4.78;;
35592;SDS011;64447;52.140;5.602;2023-05-13T13:13:31;5.57;;;4.38;;
35592;SDS011;64447;52.140;5.602;2023-05-13T13:15:57;6.40;;;4.60;;
35592;SDS011;64447;52.140;5.602;2023-05-13T13:18:23;5.38;;;4.22;;
35592;SDS011;64447;52.140;5.602;2023-05-13T13:20:49;6.03;;;4.65;;
35592;SDS011;64447;52.140;5.602;2023-05-13T13:23:16;4.80;;;4.10;;
35592;SDS011;64447;52.140;5.602;2023-05-13T13:25:42;5.22;;;3.92;;
35592;SDS011;64447;52.140;5.602;2023-05-13T13:28:08;4.93;;;4.05;;
35592;SDS011;64447;52.140;5.602;2023-05-13T13:30:33;5.35;;;3.75;;
35592;SDS011;64447;52.140;5.602;2023-05-13T13:32:59;9.52;;;3.70;;
35592;SDS011;64447;52.140;5.602;2023-05-13T13:35:24;5.38;;;3.55;;
35592;SDS011;64447;52.140;5.602;2023-05-13T13:37:50;4.50;;;3.75;;
35592;SDS011;64447;52.140;5.602;2023-05-13T13:40:16;7.22;;;4.20;;
35592;SDS011;64447;52.140;5.602;2023-05-13T13:46:05;4.57;;;3.47;;
35592;SDS011;64447;52.140;5.602;2023-05-13T13:48:31;5.38;;;3.88;;
35592;SDS011;64447;52.140;5.602;2023-05-13T13:50:56;4.65;;;3.45;;
35592;SDS011;64447;52.140;5.602;2023-05-13T13:53:23;4.28;;;3.65;;
35592;SDS011;64447;52.140;5.602;2023-05-13T13:55:49;5.90;;;4.10;;
35592;SDS011;64447;52.140;5.602;2023-05-13T13:58:14;6.88;;;3.45;;
35592;SDS011;64447;52.140;5.602;2023-05-13T14:00:40;6.32;;;3.42;;
35592;SDS011;64447;52.140;5.602;2023-05-13T14:03:05;7.03;;;3.67;;
35592;SDS011;64447;52.140;5.602;2023-05-13T14:05:31;4.82;;;3.65;;
35592;SDS011;64447;52.140;5.602;2023-05-13T14:07:56;5.30;;;4.00;;
35592;SDS011;64447;52.140;5.602;2023-05-13T14:10:22;6.63;;;4.35;;
35592;SDS011;64447;52.140;5.602;2023-05-13T14:16:10;5.40;;;3.70;;
35592;SDS011;64447;52.140;5.602;2023-05-13T14:18:35;5.82;;;3.47;;
35592;SDS011;64447;52.140;5.602;2023-05-13T14:21:01;4.10;;;3.70;;
35592;SDS011;64447;52.140;5.602;2023-05-13T14:23:27;5.30;;;3.65;;
35592;SDS011;64447;52.140;5.602;2023-05-13T14:25:52;6.72;;;3.85;;
35592;SDS011;64447;52.140;5.602;2023-05-13T14:28:18;6.18;;;3.63;;
35592;SDS011;64447;52.140;5.602;2023-05-13T14:30:43;6.25;;;4.13;;
35592;SDS011;64447;52.140;5.602;2023-05-13T14:33:09;5.05;;;4.03;;
35592;SDS011;64447;52.140;5.602;2023-05-13T14:35:35;4.70;;;3.55;;
35592;SDS011;64447;52.140;5.602;2023-05-13T14:38:00;5.70;;;4.07;;
35592;SDS011;64447;52.140;5.602;2023-05-13T14:40:26;4.07;;;3.65;;
35592;SDS011;64447;52.140;5.602;2023-05-13T14:46:13;6.40;;;3.80;;
35592;SDS011;64447;52.140;5.602;2023-05-13T14:48:39;5.28;;;3.65;;
35592;SDS011;64447;52.140;5.602;2023-05-13T14:51:05;8.25;;;3.97;;
35592;SDS011;64447;52.140;5.602;2023-05-13T14:53:30;6.10;;;4.30;;
35592;SDS011;64447;52.140;5.602;2023-05-13T14:55:56;5.18;;;3.58;;
35592;SDS011;64447;52.140;5.602;2023-05-13T14:58:22;4.03;;;3.63;;
35592;SDS011;64447;52.140;5.602;2023-05-13T15:00:48;6.85;;;3.97;;
35592;SDS011;64447;52.140;5.602;2023-05-13T15:03:14;4.75;;;3.15;;
35592;SDS011;64447;52.140;5.602;2023-05-13T15:05:40;6.65;;;3.92;;
35592;SDS011;64447;52.140;5.602;2023-05-13T15:08:06;5.75;;;3.85;;
35592;SDS011;64447;52.140;5.602;2023-05-13T15:10:32;6.35;;;4.00;;
35592;SDS011;64447;52.140;5.602;2023-05-13T15:16:20;5.50;;;4.03;;
35592;SDS011;64447;52.140;5.602;2023-05-13T15:18:45;6.78;;;4.07;;
35592;SDS011;64447;52.140;5.602;2023-05-13T15:21:11;4.95;;;3.90;;
35592;SDS011;64447;52.140;5.602;2023-05-13T15:23:37;5.13;;;3.35;;
35592;SDS011;64447;52.140;5.602;2023-05-13T15:26:02;13.38;;;11.73;;
35592;SDS011;64447;52.140;5.602;2023-05-13T15:32:28;7.63;;;5.32;;
35592;SDS011;64447;52.140;5.602;2023-05-13T15:34:54;7.85;;;5.93;;
35592;SDS011;64447;52.140;5.602;2023-05-13T15:37:19;7.88;;;6.45;;
35592;SDS011;64447;52.140;5.602;2023-05-13T15:39:45;9.43;;;5.78;;
35592;SDS011;64447;52.140;5.602;2023-05-13T15:42:11;6.82;;;5.80;;
35592;SDS011;64447;52.140;5.602;2023-05-13T15:44:37;7.72;;;4.53;;
35592;SDS011;64447;52.140;5.602;2023-05-13T15:47:03;8.65;;;3.80;;
35592;SDS011;64447;52.140;5.602;2023-05-13T15:49:29;4.95;;;3.92;;
35592;SDS011;64447;52.140;5.602;2023-05-13T15:51:56;5.95;;;4.07;;
35592;SDS011;64447;52.140;5.602;2023-05-13T15:54:22;5.90;;;4.70;;
35592;SDS011;64447;52.140;5.602;2023-05-13T15:56:47;5.30;;;4.80;;
35592;SDS011;64447;52.140;5.602;2023-05-13T15:59:13;5.57;;;3.83;;
35592;SDS011;64447;52.140;5.602;2023-05-13T16:01:39;4.40;;;4.00;;
35592;SDS011;64447;52.140;5.602;2023-05-13T16:04:05;7.38;;;3.75;;
35592;SDS011;64447;52.140;5.602;2023-05-13T16:06:31;5.90;;;3.70;;
35592;SDS011;64447;52.140;5.602;2023-05-13T16:08:57;4.78;;;3.75;;
35592;SDS011;64447;52.140;5.602;2023-05-13T16:11:25;4.18;;;3.60;;
35592;SDS011;64447;52.140;5.602;2023-05-13T16:13:51;5.15;;;3.80;;
35592;SDS011;64447;52.140;5.602;2023-05-13T16:16:17;5.00;;;4.00;;
35592;SDS011;64447;52.140;5.602;2023-05-13T16:18:43;4.15;;;3.55;;
35592;SDS011;64447;52.140;5.602;2023-05-13T16:21:09;4.22;;;3.60;;
35592;SDS011;64447;52.140;5.602;2023-05-13T16:23:35;5.20;;;3.97;;